sensor_id;sensor_type;location;lat;lon;timestamp;pressure;altitude;pressure_sealevel;temperature;humidity
68193;BME280;55012;47.562;18.414;2023-05-12T00:02:17;99841.34;;;10.19;100.00
68193;BME280;55012;47.562;18.414;2023-05-12T00:04:42;99829.25;;;10.16;100.00
68193;BME280;55012;47.562;18.414;2023-05-12T00:07:08;99836.88;;;10.14;100.00
68193;BME280;55012;47.562;18.414;2023-05-12T00:09:33;99832.00;;;10.07;100.00
68193;BME280;55012;47.562;18.414;2023-05-12T00:11:59;99827.25;;;10.04;100.00
68193;BME280;55012;47.562;18.414;2023-05-12T00:14:24;99820.25;;;10.03;100.00
68193;BME280;55012;47.562;18.414;2023-05-12T00:16:50;99821.69;;;10.01;100.00
68193;BME280;55012;47.562;18.414;2023-05-12T00:19:19;99814.41;;;10.01;100.00
68193;BME280;55012;47.562;18.414;2023-05-12T00:21:45;99808.19;;;10.01;100.00
68193;BME280;55012;47.562;18.414;2023-05-12T00:24:11;99814.84;;;10.03;100.00
68193;BME280;55012;47.562;18.414;2023-05-12T00:26:37;99816.78;;;10.03;100.00
68193;BME280;55012;47.562;18.414;2023-05-12T00:29:02;99806.59;;;10.00;100.00
68193;BME280;55012;47.562;18.414;2023-05-12T00:31:31;99810.09;;;10.00;100.00
68193;BME280;55012;47.562;18.414;2023-05-12T00:33:56;99800.88;;;10.01;100.00
68193;BME280;55012;47.562;18.414;2023-05-12T00:36:22;99797.84;;;10.03;100.00
68193;BME280;55012;47.562;18.414;2023-05-12T00:38:47;99800.22;;;10.04;100.00
68193;BME280;55012;47.562;18.414;2023-05-12T00:41:13;99804.84;;;10.04;100.00
68193;BME280;55012;47.562;18.414;2023-05-12T00:43:39;99797.97;;;10.06;100.00
68193;BME280;55012;47.562;18.414;2023-05-12T00:46:04;99788.41;;;10.09;100.00
68193;BME280;55012;47.562;18.414;2023-05-12T00:48:31;99791.44;;;10.07;100.00
68193;BME280;55012;47.562;18.414;2023-05-12T00:50:57;99789.06;;;10.06;100.00
68193;BME280;55012;47.562;18.414;2023-05-12T00:53:23;99788.28;;;10.05;100.00
68193;BME280;55012;47.562;18.414;2023-05-12T00:55:49;99782.41;;;10.03;100.00
68193;BME280;55012;47.562;18.414;2023-05-12T00:58:15;99788.16;;;10.02;100.00
68193;BME280;55012;47.562;18.414;2023-05-12T01:00:40;99790.88;;;10.02;100.00
68193;BME280;55012;47.562;18.414;2023-05-12T01:03:06;99788.47;;;10.00;100.00
68193;BME280;55012;47.562;18.414;2023-05-12T01:05:47;99792.28;;;9.99;100.00
68193;BME280;55012;47.562;18.414;2023-05-12T01:08:15;99790.38;;;10.00;100.00
68193;BME280;55012;47.562;18.414;2023-05-12T01:10:45;99788.16;;;10.02;100.00
68193;BME280;55012;47.562;18.414;2023-05-12T01:13:10;99785.63;;;9.97;100.00
68193;BME280;55012;47.562;18.414;2023-05-12T01:15:36;99792.63;;;9.98;100.00
68193;BME280;55012;47.562;18.414;2023-05-12T01:18:05;99791.50;;;9.99;100.00
68193;BME280;55012;47.562;18.414;2023-05-12T01:20:31;99794.34;;;10.02;100.00
68193;BME280;55012;47.562;18.414;2023-05-12T01:22:57;99800.56;;;10.03;100.00
68193;BME280;55012;47.562;18.414;2023-05-12T01:25:24;99806.28;;;10.01;100.00
68193;BME280;55012;47.562;18.414;2023-05-12T01:27:51;99796.56;;;10.00;100.00
68193;BME280;55012;47.562;18.414;2023-05-12T01:30:18;99801.69;;;10.02;100.00
68193;BME280;55012;47.562;18.414;2023-05-12T01:32:45;99806.28;;;10.01;100.00
68193;BME280;55012;47.562;18.414;2023-05-12T01:35:11;99802.78;;;10.01;100.00
68193;BME280;55012;47.562;18.414;2023-05-12T01:37:36;99805.63;;;10.04;100.00
68193;BME280;55012;47.562;18.414;2023-05-12T01:40:02;99805.28;;;10.06;100.00
68193;BME280;55012;47.562;18.414;2023-05-12T01:42:27;99802.25;;;10.07;100.00
68193;BME280;55012;47.562;18.414;2023-05-12T01:44:53;99798.75;;;10.07;100.00
68193;BME280;55012;47.562;18.414;2023-05-12T01:47:18;99808.78;;;10.06;100.00
68193;BME280;55012;47.562;18.414;2023-05-12T01:49:45;99806.88;;;10.07;100.00
68193;BME280;55012;47.562;18.414;2023-05-12T01:52:11;99813.88;;;10.08;100.00
68193;BME280;55012;47.562;18.414;2023-05-12T01:54:37;99809.56;;;10.07;100.00
68193;BME280;55012;47.562;18.414;2023-05-12T01:57:02;99806.09;;;10.06;100.00
68193;BME280;55012;47.562;18.414;2023-05-12T01:59:28;99803.03;;;10.08;100.00
68193;BME280;55012;47.562;18.414;2023-05-12T02:01:53;99797.19;;;10.06;100.00
68193;BME280;55012;47.562;18.414;2023-05-12T02:04:19;99799.88;;;10.06;100.00
68193;BME280;55012;47.562;18.414;2023-05-12T02:06:44;99806.41;;;10.05;100.00
68193;BME280;55012;47.562;18.414;2023-05-12T02:09:10;99802.47;;;10.02;100.00
68193;BME280;55012;47.562;18.414;2023-05-12T02:11:35;99803.59;;;10.01;100.00
68193;BME280;55012;47.562;18.414;2023-05-12T02:14:01;99800.88;;;10.01;100.00
68193;BME280;55012;47.562;18.414;2023-05-12T02:16:27;99809.91;;;10.05;100.00
68193;BME280;55012;47.562;18.414;2023-05-12T02:18:52;99802.59;;;10.06;100.00
68193;BME280;55012;47.562;18.414;2023-05-12T02:21:18;99821.84;;;10.04;100.00
68193;BME280;55012;47.562;18.414;2023-05-12T02:23:43;99826.91;;;10.06;100.00
68193;BME280;55012;47.562;18.414;2023-05-12T02:26:09;99831.66;;;10.09;100.00
68193;BME280;55012;47.562;18.414;2023-05-12T02:28:34;99832.94;;;10.11;100.00
68193;BME280;55012;47.562;18.414;2023-05-12T02:31:00;99831.47;;;10.14;100.00
68193;BME280;55012;47.562;18.414;2023-05-12T02:33:26;99830.88;;;10.08;100.00
68193;BME280;55012;47.562;18.414;2023-05-12T02:35:51;99832.31;;;10.06;100.00
68193;BME280;55012;47.562;18.414;2023-05-12T02:38:17;99833.91;;;10.07;100.00
68193;BME280;55012;47.562;18.414;2023-05-12T02:40:42;99839.78;;;10.09;100.00
68193;BME280;55012;47.562;18.414;2023-05-12T02:43:08;99843.75;;;10.11;100.00
68193;BME280;55012;47.562;18.414;2023-05-12T02:45:33;99838.69;;;10.10;100.00
68193;BME280;55012;47.562;18.414;2023-05-12T02:47:59;99848.69;;;10.09;100.00
68193;BME280;55012;47.562;18.414;2023-05-12T02:50:24;99846.63;;;10.06;100.00
68193;BME280;55012;47.562;18.414;2023-05-12T02:52:50;99856.97;;;10.04;100.00
68193;BME280;55012;47.562;18.414;2023-05-12T02:55:16;99839.81;;;10.00;100.00
68193;BME280;55012;47.562;18.414;2023-05-12T02:57:42;99851.63;;;9.96;100.00
68193;BME280;55012;47.562;18.414;2023-05-12T03:00:08;99864.34;;;9.95;100.00
68193;BME280;55012;47.562;18.414;2023-05-12T03:02:35;99864.19;;;9.92;100.00
68193;BME280;55012;47.562;18.414;2023-05-12T03:05:01;99874.19;;;9.91;100.00
68193;BME280;55012;47.562;18.414;2023-05-12T03:07:27;99887.72;;;9.91;100.00
68193;BME280;55012;47.562;18.414;2023-05-12T03:09:52;99882.97;;;9.88;100.00
68193;BME280;55012;47.562;18.414;2023-05-12T03:12:18;99886.94;;;9.91;100.00
68193;BME280;55012;47.562;18.414;2023-05-12T03:14:44;99878.50;;;9.92;100.00
68193;BME280;55012;47.562;18.414;2023-05-12T03:17:09;99878.97;;;9.94;100.00
68193;BME280;55012;47.562;18.414;2023-05-12T03:19:35;99872.91;;;9.97;100.00
68193;BME280;55012;47.562;18.414;2023-05-12T03:22:00;99875.63;;;9.97;100.00
68193;BME280;55012;47.562;18.414;2023-05-12T03:24:27;99872.91;;;9.97;100.00
68193;BME280;55012;47.562;18.414;2023-05-12T03:26:53;99863.56;;;9.95;100.00
68193;BME280;55012;47.562;18.414;2023-05-12T03:29:19;99865.75;;;9.93;100.00
68193;BME280;55012;47.562;18.414;2023-05-12T03:31:45;99861.19;;;9.93;100.00
68193;BME280;55012;47.562;18.414;2023-05-12T03:34:10;99860.69;;;9.91;100.00
68193;BME280;55012;47.562;18.414;2023-05-12T03:36:35;99863.41;;;9.91;100.00
68193;BME280;55012;47.562;18.414;2023-05-12T03:39:01;99860.38;;;9.93;100.00
68193;BME280;55012;47.562;18.414;2023-05-12T03:41:27;99852.25;;;9.93;100.00
68193;BME280;55012;47.562;18.414;2023-05-12T03:43:53;99850.84;;;9.95;100.00
68193;BME280;55012;47.562;18.414;2023-05-12T03:46:18;99836.03;;;9.93;100.00
68193;BME280;55012;47.562;18.414;2023-05-12T03:48:45;99843.84;;;9.94;100.00
68193;BME280;55012;47.562;18.414;2023-05-12T03:51:10;99832.69;;;9.96;100.00
68193;BME280;55012;47.562;18.414;2023-05-12T03:53:36;99829.22;;;9.95;100.00
68193;BME280;55012;47.562;18.414;2023-05-12T03:56:04;99839.34;;;9.98;100.00
68193;BME280;55012;47.562;18.414;2023-05-12T03:58:30;99822.03;;;9.99;100.00
68193;BME280;55012;47.562;18.414;2023-05-12T04:00:56;99818.97;;;10.01;100.00
68193;BME280;55012;47.562;18.414;2023-05-12T04:03:22;99826.00;;;10.02;100.00
68193;BME280;55012;47.562;18.414;2023-05-12T04:05:47;99817.56;;;10.03;100.00
68193;BME280;55012;47.562;18.414;2023-05-12T04:08:13;99814.53;;;10.05;100.00
68193;BME280;55012;47.562;18.414;2023-05-12T04:10:39;99813.28;;;10.02;100.00
68193;BME280;55012;47.562;18.414;2023-05-12T04:13:05;99810.25;;;10.04;100.00
68193;BME280;55012;47.562;18.414;2023-05-12T04:15:35;99806.09;;;10.06;100.00
68193;BME280;55012;47.562;18.414;2023-05-12T04:18:01;99790.66;;;10.07;100.00
68193;BME280;55012;47.562;18.414;2023-05-12T04:20:27;99793.03;;;10.08;100.00
68193;BME280;55012;47.562;18.414;2023-05-12T04:22:52;99795.44;;;10.10;100.00
68193;BME280;55012;47.562;18.414;2023-05-12T04:25:18;99791.59;;;10.11;100.00
68193;BME280;55012;47.562;18.414;2023-05-12T04:27:43;99786.66;;;10.13;100.00
68193;BME280;55012;47.562;18.414;2023-05-12T04:30:09;99784.06;;;10.17;100.00
68193;BME280;55012;47.562;18.414;2023-05-12T04:32:35;99788.84;;;10.20;100.00
68193;BME280;55012;47.562;18.414;2023-05-12T04:35:00;99783.59;;;10.23;100.00
68193;BME280;55012;47.562;18.414;2023-05-12T04:37:26;99780.69;;;10.28;100.00
68193;BME280;55012;47.562;18.414;2023-05-12T04:39:51;99768.16;;;10.24;100.00
68193;BME280;55012;47.562;18.414;2023-05-12T04:42:17;99775.13;;;10.25;100.00
68193;BME280;55012;47.562;18.414;2023-05-12T04:44:43;99771.00;;;10.27;100.00
68193;BME280;55012;47.562;18.414;2023-05-12T04:47:10;99772.91;;;10.27;100.00
68193;BME280;55012;47.562;18.414;2023-05-12T04:49:36;99778.47;;;10.22;100.00
68193;BME280;55012;47.562;18.414;2023-05-12T04:52:01;99764.84;;;10.18;100.00
68193;BME280;55012;47.562;18.414;2023-05-12T04:54:28;99768.97;;;10.16;100.00
68193;BME280;55012;47.562;18.414;2023-05-12T04:56:53;99762.78;;;10.15;100.00
68193;BME280;55012;47.562;18.414;2023-05-12T04:59:18;99757.38;;;10.15;100.00
68193;BME280;55012;47.562;18.414;2023-05-12T05:01:44;99763.91;;;10.14;100.00
68193;BME280;55012;47.562;18.414;2023-05-12T05:04:10;99771.03;;;10.19;100.00
68193;BME280;55012;47.562;18.414;2023-05-12T05:06:35;99771.19;;;10.22;100.00
68193;BME280;55012;47.562;18.414;2023-05-12T05:09:01;99763.72;;;10.19;100.00
68193;BME280;55012;47.562;18.414;2023-05-12T05:11:26;99756.72;;;10.18;100.00
68193;BME280;55012;47.562;18.414;2023-05-12T05:13:52;99769.13;;;10.19;100.00
68193;BME280;55012;47.562;18.414;2023-05-12T05:16:17;99771.03;;;10.19;100.00
68193;BME280;55012;47.562;18.414;2023-05-12T05:18:43;99758.50;;;10.14;100.00
68193;BME280;55012;47.562;18.414;2023-05-12T05:21:13;99751.00;;;10.20;100.00
68193;BME280;55012;47.562;18.414;2023-05-12T05:23:40;99758.31;;;10.19;100.00
68193;BME280;55012;47.562;18.414;2023-05-12T05:26:06;99733.63;;;10.21;100.00
68193;BME280;55012;47.562;18.414;2023-05-12T05:28:32;99751.16;;;10.14;100.00
68193;BME280;55012;47.562;18.414;2023-05-12T05:30:57;99751.06;;;10.11;100.00
68193;BME280;55012;47.562;18.414;2023-05-12T05:33:23;99750.09;;;10.07;100.00
68193;BME280;55012;47.562;18.414;2023-05-12T05:35:49;99740.69;;;10.13;100.00
68193;BME280;55012;47.562;18.414;2023-05-12T05:38:14;99741.81;;;10.12;100.00
68193;BME280;55012;47.562;18.414;2023-05-12T05:40:40;99746.56;;;10.15;100.00
68193;BME280;55012;47.562;18.414;2023-05-12T05:43:05;99747.34;;;10.16;100.00
68193;BME280;55012;47.562;18.414;2023-05-12T05:45:32;99752.91;;;10.19;100.00
68193;BME280;55012;47.562;18.414;2023-05-12T05:47:57;99747.34;;;10.16;100.00
68193;BME280;55012;47.562;18.414;2023-05-12T05:50:23;99744.16;;;10.22;100.00
68193;BME280;55012;47.562;18.414;2023-05-12T05:52:48;99742.22;;;10.23;100.00
68193;BME280;55012;47.562;18.414;2023-05-12T05:55:14;99742.03;;;10.28;100.00
68193;BME280;55012;47.562;18.414;2023-05-12T05:57:39;99739.19;;;10.24;100.00
68193;BME280;55012;47.562;18.414;2023-05-12T06:00:05;99739.84;;;10.21;100.00
68193;BME280;55012;47.562;18.414;2023-05-12T06:02:34;99722.69;;;10.17;100.00
68193;BME280;55012;47.562;18.414;2023-05-12T06:05:00;99735.78;;;10.36;100.00
68193;BME280;55012;47.562;18.414;2023-05-12T06:07:25;99727.44;;;10.41;100.00
68193;BME280;55012;47.562;18.414;2023-05-12T06:09:54;99723.63;;;10.42;100.00
68193;BME280;55012;47.562;18.414;2023-05-12T06:12:19;99717.22;;;10.47;100.00
68193;BME280;55012;47.562;18.414;2023-05-12T06:14:45;99718.69;;;10.44;100.00
68193;BME280;55012;47.562;18.414;2023-05-12T06:17:10;99726.47;;;10.46;100.00
68193;BME280;55012;47.562;18.414;2023-05-12T06:19:36;99725.69;;;10.45;100.00
68193;BME280;55012;47.562;18.414;2023-05-12T06:22:02;99725.78;;;10.49;100.00
68193;BME280;55012;47.562;18.414;2023-05-12T06:24:27;99730.88;;;10.50;100.00
68193;BME280;55012;47.562;18.414;2023-05-12T06:26:53;99737.88;;;10.51;100.00
68193;BME280;55012;47.562;18.414;2023-05-12T06:29:18;99729.78;;;10.51;100.00
68193;BME280;55012;47.562;18.414;2023-05-12T06:31:45;99714.72;;;10.41;100.00
68193;BME280;55012;47.562;18.414;2023-05-12T06:34:11;99723.63;;;10.42;100.00
68193;BME280;55012;47.562;18.414;2023-05-12T06:36:36;99713.13;;;10.40;100.00
68193;BME280;55012;47.562;18.414;2023-05-12T06:39:02;99719.47;;;10.45;100.00
68193;BME280;55012;47.562;18.414;2023-05-12T06:41:28;99718.81;;;10.48;100.00
68193;BME280;55012;47.562;18.414;2023-05-12T06:43:54;99719.75;;;10.52;100.00
68193;BME280;55012;47.562;18.414;2023-05-12T06:46:19;99712.25;;;10.49;100.00
68193;BME280;55012;47.562;18.414;2023-05-12T06:48:45;99714.19;;;10.48;100.00
68193;BME280;55012;47.562;18.414;2023-05-12T06:51:11;99705.63;;;10.46;100.00
68193;BME280;55012;47.562;18.414;2023-05-12T06:53:37;99711.38;;;10.45;100.00
68193;BME280;55012;47.562;18.414;2023-05-12T06:56:03;99719.75;;;10.52;100.00
68193;BME280;55012;47.562;18.414;2023-05-12T06:58:29;99718.94;;;10.51;100.00
68193;BME280;55012;47.562;18.414;2023-05-12T07:00:55;99707.78;;;10.53;100.00
68193;BME280;55012;47.562;18.414;2023-05-12T07:03:21;99716.63;;;10.62;100.00
68193;BME280;55012;47.562;18.414;2023-05-12T07:05:47;99707.97;;;10.68;100.00
68193;BME280;55012;47.562;18.414;2023-05-12T07:08:12;99711.03;;;10.79;100.00
68193;BME280;55012;47.562;18.414;2023-05-12T07:10:38;99714.63;;;10.83;100.00
68193;BME280;55012;47.562;18.414;2023-05-12T07:13:04;99704.84;;;10.91;100.00
68193;BME280;55012;47.562;18.414;2023-05-12T07:15:30;99701.69;;;10.89;100.00
68193;BME280;55012;47.562;18.414;2023-05-12T07:17:55;99694.69;;;10.88;100.00
68193;BME280;55012;47.562;18.414;2023-05-12T07:20:21;99701.81;;;10.92;100.00
68193;BME280;55012;47.562;18.414;2023-05-12T07:22:47;99694.69;;;11.00;100.00
68193;BME280;55012;47.562;18.414;2023-05-12T07:25:12;99690.41;;;10.99;100.00
68193;BME280;55012;47.562;18.414;2023-05-12T07:27:38;99697.88;;;11.02;100.00
68193;BME280;55012;47.562;18.414;2023-05-12T07:30:05;99705.66;;;11.04;100.00
68193;BME280;55012;47.562;18.414;2023-05-12T07:32:30;99712.44;;;11.10;100.00
68193;BME280;55012;47.562;18.414;2023-05-12T07:34:56;99713.91;;;11.07;100.00
68193;BME280;55012;47.562;18.414;2023-05-12T07:37:21;99710.75;;;11.05;100.00
68193;BME280;55012;47.562;18.414;2023-05-12T07:39:47;99719.66;;;11.06;100.00
68193;BME280;55012;47.562;18.414;2023-05-12T07:42:13;99710.28;;;11.03;100.00
68193;BME280;55012;47.562;18.414;2023-05-12T07:44:39;99728.78;;;11.01;100.00
68193;BME280;55012;47.562;18.414;2023-05-12T07:47:05;99735.31;;;11.00;100.00
68193;BME280;55012;47.562;18.414;2023-05-12T07:49:31;99726.75;;;10.98;100.00
68193;BME280;55012;47.562;18.414;2023-05-12T07:51:57;99756.09;;;11.08;100.00
68193;BME280;55012;47.562;18.414;2023-05-12T07:54:22;99752.84;;;11.15;100.00
68193;BME280;55012;47.562;18.414;2023-05-12T07:56:48;99765.16;;;11.24;100.00
68193;BME280;55012;47.562;18.414;2023-05-12T07:59:13;99772.28;;;11.29;100.00
68193;BME280;55012;47.562;18.414;2023-05-12T08:01:39;99769.47;;;11.25;100.00
68193;BME280;55012;47.562;18.414;2023-05-12T08:04:04;99780.84;;;11.31;100.00
68193;BME280;55012;47.562;18.414;2023-05-12T08:06:31;99775.66;;;11.38;100.00
68193;BME280;55012;47.562;18.414;2023-05-12T08:08:57;99777.25;;;11.39;100.00
68193;BME280;55012;47.562;18.414;2023-05-12T08:11:23;99781.44;;;11.37;100.00
68193;BME280;55012;47.562;18.414;2023-05-12T08:13:50;99789.13;;;11.35;100.00
68193;BME280;55012;47.562;18.414;2023-05-12T08:16:16;99787.84;;;11.32;100.00
68193;BME280;55012;47.562;18.414;2023-05-12T08:18:41;99796.22;;;11.39;100.00
68193;BME280;55012;47.562;18.414;2023-05-12T08:21:07;99797.94;;;11.44;100.00
68193;BME280;55012;47.562;18.414;2023-05-12T08:23:32;99804.47;;;11.43;100.00
68193;BME280;55012;47.562;18.414;2023-05-12T08:25:58;99803.22;;;11.40;100.00
68193;BME280;55012;47.562;18.414;2023-05-12T08:28:23;99802.78;;;11.50;100.00
68193;BME280;55012;47.562;18.414;2023-05-12T08:30:49;99802.59;;;11.68;100.00
68193;BME280;55012;47.562;18.414;2023-05-12T08:33:15;99808.22;;;11.75;100.00
68193;BME280;55012;47.562;18.414;2023-05-12T08:35:40;99816.81;;;11.77;100.00
68193;BME280;55012;47.562;18.414;2023-05-12T08:38:06;99817.63;;;11.90;100.00
68193;BME280;55012;47.562;18.414;2023-05-12T08:40:39;99827.09;;;12.08;100.00
68193;BME280;55012;47.562;18.414;2023-05-12T08:43:12;99818.41;;;12.27;100.00
68193;BME280;55012;47.562;18.414;2023-05-12T08:45:38;99828.09;;;12.40;100.00
68193;BME280;55012;47.562;18.414;2023-05-12T08:48:06;99846.38;;;12.55;100.00
68193;BME280;55012;47.562;18.414;2023-05-12T08:50:34;99848.94;;;12.76;100.00
68193;BME280;55012;47.562;18.414;2023-05-12T08:53:02;99856.03;;;12.81;100.00
68193;BME280;55012;47.562;18.414;2023-05-12T08:55:28;99863.16;;;12.85;100.00
68193;BME280;55012;47.562;18.414;2023-05-12T08:57:55;99865.97;;;12.89;100.00
68193;BME280;55012;47.562;18.414;2023-05-12T09:00:22;99884.38;;;12.96;100.00
68193;BME280;55012;47.562;18.414;2023-05-12T09:02:50;99891.97;;;12.90;100.00
68193;BME280;55012;47.562;18.414;2023-05-12T09:05:17;99903.97;;;13.01;100.00
68193;BME280;55012;47.562;18.414;2023-05-12T09:07:43;99898.97;;;13.03;100.00
68193;BME280;55012;47.562;18.414;2023-05-12T09:10:20;99905.88;;;13.01;100.00
68193;BME280;55012;47.562;18.414;2023-05-12T09:12:46;99918.47;;;12.93;100.00
68193;BME280;55012;47.562;18.414;2023-05-12T09:15:16;99914.84;;;12.89;100.00
68193;BME280;55012;47.562;18.414;2023-05-12T09:17:43;99917.13;;;12.87;100.00
68193;BME280;55012;47.562;18.414;2023-05-12T09:20:09;99920.97;;;12.86;100.00
68193;BME280;55012;47.562;18.414;2023-05-12T09:22:35;99927.88;;;12.83;100.00
68193;BME280;55012;47.562;18.414;2023-05-12T09:25:14;99936.94;;;12.75;100.00
68193;BME280;55012;47.562;18.414;2023-05-12T09:27:41;99938.66;;;12.55;100.00
68193;BME280;55012;47.562;18.414;2023-05-12T09:30:07;99947.81;;;12.38;100.00
68193;BME280;55012;47.562;18.414;2023-05-12T09:32:34;99945.47;;;12.25;100.00
68193;BME280;55012;47.562;18.414;2023-05-12T09:35:09;99956.63;;;12.11;100.00
68193;BME280;55012;47.562;18.414;2023-05-12T09:37:36;99950.06;;;12.00;100.00
68193;BME280;55012;47.562;18.414;2023-05-12T09:40:03;99939.28;;;11.91;100.00
68193;BME280;55012;47.562;18.414;2023-05-12T09:42:30;99941.00;;;11.84;100.00
68193;BME280;55012;47.562;18.414;2023-05-12T09:45:03;99941.44;;;11.86;100.00
68193;BME280;55012;47.562;18.414;2023-05-12T09:47:38;99935.56;;;11.84;100.00
68193;BME280;55012;47.562;18.414;2023-05-12T09:50:06;99937.25;;;11.88;100.00
68193;BME280;55012;47.562;18.414;2023-05-12T09:52:36;99929.72;;;11.94;100.00
68193;BME280;55012;47.562;18.414;2023-05-12T09:55:06;99937.06;;;12.05;100.00
68193;BME280;55012;47.562;18.414;2023-05-12T09:57:41;99933.00;;;12.12;100.00
68193;BME280;55012;47.562;18.414;2023-05-12T10:00:12;99933.00;;;12.36;100.00
68193;BME280;55012;47.562;18.414;2023-05-12T10:02:46;99933.34;;;12.59;100.00
68193;BME280;55012;47.562;18.414;2023-05-12T10:05:15;99946.19;;;12.74;100.00
68193;BME280;55012;47.562;18.414;2023-05-12T10:07:44;99954.78;;;13.01;100.00
68193;BME280;55012;47.562;18.414;2023-05-12T10:10:15;99946.78;;;13.32;100.00
68193;BME280;55012;47.562;18.414;2023-05-12T10:12:42;99961.09;;;13.45;100.00
68193;BME280;55012;47.562;18.414;2023-05-12T10:15:09;99959.47;;;13.56;100.00
68193;BME280;55012;47.562;18.414;2023-05-12T10:17:35;99957.72;;;13.64;100.00
68193;BME280;55012;47.562;18.414;2023-05-12T10:20:02;99960.72;;;13.59;100.00
68193;BME280;55012;47.562;18.414;2023-05-12T10:22:32;99966.97;;;13.75;100.00
68193;BME280;55012;47.562;18.414;2023-05-12T10:24:59;99963.81;;;13.89;100.00
68193;BME280;55012;47.562;18.414;2023-05-12T10:27:25;99956.75;;;14.00;100.00
68193;BME280;55012;47.562;18.414;2023-05-12T10:29:51;99952.09;;;14.00;100.00
68193;BME280;55012;47.562;18.414;2023-05-12T10:32:18;99947.53;;;14.04;100.00
68193;BME280;55012;47.562;18.414;2023-05-12T10:34:44;99920.31;;;14.04;100.00
68193;BME280;55012;47.562;18.414;2023-05-12T10:37:10;99898.31;;;14.10;100.00
68193;BME280;55012;47.562;18.414;2023-05-12T10:39:36;99881.00;;;14.02;100.00
68193;BME280;55012;47.562;18.414;2023-05-12T10:42:10;99878.13;;;13.95;100.00
68193;BME280;55012;47.562;18.414;2023-05-12T10:44:35;99867.34;;;13.83;100.00
68193;BME280;55012;47.562;18.414;2023-05-12T10:47:12;99844.69;;;13.78;100.00
68193;BME280;55012;47.562;18.414;2023-05-12T10:49:39;99860.31;;;13.66;100.00
68193;BME280;55012;47.562;18.414;2023-05-12T10:52:06;99881.00;;;13.70;100.00
68193;BME280;55012;47.562;18.414;2023-05-12T10:54:42;99870.31;;;13.77;100.00
68193;BME280;55012;47.562;18.414;2023-05-12T10:57:13;99869.69;;;13.84;100.00
68193;BME280;55012;47.562;18.414;2023-05-12T11:00:11;99881.78;;;13.87;100.00
68193;BME280;55012;47.562;18.414;2023-05-12T11:02:48;99869.09;;;13.91;100.00
68193;BME280;55012;47.562;18.414;2023-05-12T11:05:13;99859.06;;;13.95;100.00
68193;BME280;55012;47.562;18.414;2023-05-12T11:07:39;99855.00;;;14.20;100.00
68193;BME280;55012;47.562;18.414;2023-05-12T11:10:10;99855.59;;;14.45;100.00
68193;BME280;55012;47.562;18.414;2023-05-12T11:12:36;99858.31;;;14.45;100.00
68193;BME280;55012;47.562;18.414;2023-05-12T11:15:03;99863.66;;;14.57;100.00
68193;BME280;55012;47.562;18.414;2023-05-12T11:17:32;99863.16;;;14.71;100.00
68193;BME280;55012;47.562;18.414;2023-05-12T11:19:57;99852.56;;;14.66;100.00
68193;BME280;55012;47.562;18.414;2023-05-12T11:22:24;99857.44;;;14.57;100.00
68193;BME280;55012;47.562;18.414;2023-05-12T11:24:52;99853.56;;;14.58;100.00
68193;BME280;55012;47.562;18.414;2023-05-12T11:27:18;99856.38;;;14.46;100.00
68193;BME280;55012;47.562;18.414;2023-05-12T11:29:57;99866.06;;;14.27;100.00
68193;BME280;55012;47.562;18.414;2023-05-12T11:32:23;99857.50;;;14.10;100.00
68193;BME280;55012;47.562;18.414;2023-05-12T11:34:48;99853.47;;;13.88;100.00
68193;BME280;55012;47.562;18.414;2023-05-12T11:37:14;99853.63;;;13.79;100.00
68193;BME280;55012;47.562;18.414;2023-05-12T11:39:40;99858.03;;;13.68;100.00
68193;BME280;55012;47.562;18.414;2023-05-12T11:42:06;99862.38;;;13.57;100.00
68193;BME280;55012;47.562;18.414;2023-05-12T11:44:34;99854.13;;;13.37;100.00
68193;BME280;55012;47.562;18.414;2023-05-12T11:49:45;99859.22;;;13.11;100.00
68193;BME280;55012;47.562;18.414;2023-05-12T11:52:11;99864.34;;;13.00;100.00
68193;BME280;55012;47.562;18.414;2023-05-12T11:54:36;99867.16;;;13.04;100.00
68193;BME280;55012;47.562;18.414;2023-05-12T11:57:02;99886.47;;;13.14;100.00
68193;BME280;55012;47.562;18.414;2023-05-12T11:59:34;99878.97;;;13.24;100.00
68193;BME280;55012;47.562;18.414;2023-05-12T12:02:01;99881.81;;;13.27;100.00
68193;BME280;55012;47.562;18.414;2023-05-12T12:04:31;99888.91;;;13.32;100.00
68193;BME280;55012;47.562;18.414;2023-05-12T12:06:57;99887.25;;;13.27;100.00
68193;BME280;55012;47.562;18.414;2023-05-12T12:09:30;99879.97;;;13.31;100.00
68193;BME280;55012;47.562;18.414;2023-05-12T12:11:55;99884.16;;;13.29;100.00
68193;BME280;55012;47.562;18.414;2023-05-12T12:14:21;99883.75;;;13.27;100.00
68193;BME280;55012;47.562;18.414;2023-05-12T12:16:46;99866.88;;;13.21;100.00
68193;BME280;55012;47.562;18.414;2023-05-12T12:19:12;99880.59;;;13.12;100.00
68193;BME280;55012;47.562;18.414;2023-05-12T12:21:37;99876.28;;;13.11;100.00
68193;BME280;55012;47.562;18.414;2023-05-12T12:24:03;99875.38;;;13.19;100.00
68193;BME280;55012;47.562;18.414;2023-05-12T12:26:30;99875.38;;;13.19;100.00
68193;BME280;55012;47.562;18.414;2023-05-12T12:28:55;99875.59;;;13.14;100.00
68193;BME280;55012;47.562;18.414;2023-05-12T12:31:21;99888.66;;;13.09;100.00
68193;BME280;55012;47.562;18.414;2023-05-12T12:33:47;99877.59;;;13.02;100.00
68193;BME280;55012;47.562;18.414;2023-05-12T12:36:12;99875.09;;;12.97;100.00
68193;BME280;55012;47.562;18.414;2023-05-12T12:38:38;99873.38;;;12.76;100.00
68193;BME280;55012;47.562;18.414;2023-05-12T12:41:03;99879.84;;;12.59;100.00